Time;durP1;ratioP1;P1;durP2;ratioP2;P2;SDS_P1;SDS_P2;PMS_P1;PMS_P2;Temp;Humidity;BMP_temperature;BMP_pressure;BME280_temperature;BME280_humidity;BME280_pressure;Samples;Min_cycle;Max_cycle;Signal;HPM_P1;HPM_P2
2023/01/02 00:02:09;;;;;;;1.60;0.52;;;;;;;-2.63;88.93;100043.22;10488736;28;20427;-75
2023/01/02 00:07:11;;;;;;;1.17;0.40;;;;;;;-2.63;88.76;100067.38;10497734;28;20535;-74
2023/01/02 00:12:13;;;;;;;3.85;0.50;;;;;;;-2.67;88.59;100079.59;10525151;28;20052;-75
2023/01/02 00:17:17;;;;;;;0.20;0.20;;;;;;;-2.70;88.44;100082.69;10527549;28;20505;-75
2023/01/02 00:22:20;;;;;;;0.90;0.32;;;;;;;-2.77;87.83;100094.28;10528800;28;20041;-74
2023/01/02 00:27:22;;;;;;;1.08;0.20;;;;;;;-2.82;87.83;100088.69;10528632;28;20051;-75
2023/01/02 00:32:24;;;;;;;2.35;0.28;;;;;;;-2.82;87.31;100102.09;10528107;28;20052;-75
2023/01/02 00:37:26;;;;;;;0.40;0.40;;;;;;;-2.84;87.31;100112.22;10497883;28;20045;-75
2023/01/02 00:42:28;;;;;;;1.55;0.47;;;;;;;-2.89;87.44;100120.09;10510846;28;20503;-75
2023/01/02 00:47:30;;;;;;;2.50;0.38;;;;;;;-2.90;87.37;100142.59;10527865;28;20053;-75
2023/01/02 00:52:33;;;;;;;1.25;0.63;;;;;;;-2.80;87.44;100134.94;10527143;28;20056;-75
2023/01/02 00:57:35;;;;;;;1.10;0.60;;;;;;;-2.80;87.38;100160.97;10503812;28;20045;-74
2023/01/02 01:02:37;;;;;;;0.30;0.30;;;;;;;-2.84;87.20;100157.03;10486284;28;20057;-75
2023/01/02 01:07:39;;;;;;;0.73;0.40;;;;;;;-2.88;87.50;100164.69;10485473;28;20056;-75
2023/01/02 01:12:42;;;;;;;0.82;0.50;;;;;;;-2.86;87.86;100183.28;10487239;28;20037;-76
2023/01/02 01:17:44;;;;;;;1.88;0.40;;;;;;;-2.92;87.60;100190.28;10524227;28;20059;-75
2023/01/02 01:22:46;;;;;;;1.23;0.52;;;;;;;-2.97;87.48;100199.97;10526806;28;20057;-75
2023/01/02 01:27:52;;;;;;;0.40;0.40;;;;;;;-2.97;87.96;100199.97;10527051;28;20053;-75
2023/01/02 01:32:59;;;;;;;3.45;0.50;;;;;;;-3.05;87.62;100203.69;10522406;28;20041;-74
2023/01/02 01:38:01;;;;;;;2.05;1.25;;;;;;;-3.03;87.85;100217.72;10526878;28;20051;-76
2023/01/02 01:43:11;;;;;;;1.00;0.47;;;;;;;-2.99;88.02;100235.06;10526672;28;20422;-75
2023/01/02 01:48:39;;;;;;;1.75;0.50;;;;;;;-3.02;87.26;100251.59;10525919;28;20055;-75
2023/01/02 01:53:43;;;;;;;3.30;0.50;;;;;;;-3.06;87.56;100250.34;10509400;28;20032;-75
2023/01/02 01:58:46;;;;;;;2.72;0.60;;;;;;;-3.05;87.43;100266.25;10525169;28;20056;-76
2023/01/02 02:03:49;;;;;;;2.10;0.50;;;;;;;-3.06;87.29;100264.59;10526854;28;20415;-76
2023/01/02 02:09:15;;;;;;;2.22;0.40;;;;;;;-3.01;87.24;100263.97;10525218;28;20067;-75
2023/01/02 02:14:17;;;;;;;1.00;0.35;;;;;;;-3.06;87.24;100275.31;10489684;28;20052;-75
2023/01/02 02:20:13;;;;;;;0.68;0.40;;;;;;;-3.00;87.33;100284.41;10492171;28;20052;-75
2023/01/02 02:25:53;;;;;;;1.45;0.55;;;;;;;-3.01;86.55;100295.34;10491247;28;20512;-76
2023/01/02 02:31:13;;;;;;;0.50;0.35;;;;;;;-3.00;86.94;100300.53;10492030;28;20072;-75
2023/01/02 02:37:01;;;;;;;0.30;0.30;;;;;;;-3.01;86.96;100308.78;10491284;28;20052;-74
2023/01/02 02:42:27;;;;;;;2.33;0.30;;;;;;;-3.03;87.02;100319.72;10506301;28;20060;-74
2023/01/02 02:47:40;;;;;;;2.00;0.60;;;;;;;-2.97;86.83;100340.38;10490132;28;20053;-75
2023/01/02 02:52:49;;;;;;;1.23;0.50;;;;;;;-2.93;87.25;100355.06;10491356;28;20057;-75
2023/01/02 02:57:52;;;;;;;0.25;0.20;;;;;;;-2.99;86.98;100361.22;10490583;28;20045;-76
2023/01/02 03:02:54;;;;;;;0.38;0.17;;;;;;;-2.97;87.47;100366.41;10489270;28;20060;-77
2023/01/02 03:08:21;;;;;;;1.58;0.40;;;;;;;-2.92;87.57;100370.16;10489933;28;20328;-74
2023/01/02 03:13:46;;;;;;;0.50;0.50;;;;;;;-2.91;87.21;100365.63;10472838;28;20053;-76
2023/01/02 03:19:10;;;;;;;3.85;0.70;;;;;;;-2.84;87.59;100369.13;10529947;28;20044;-76
2023/01/02 03:24:14;;;;;;;1.17;0.28;;;;;;;-2.82;87.74;100396.63;10529234;28;20040;-75
2023/01/02 03:29:19;;;;;;;2.88;0.57;;;;;;;-2.81;87.83;100393.72;10529329;28;20314;-74
2023/01/02 03:34:27;;;;;;;3.08;0.60;;;;;;;-2.81;88.05;100407.16;10522111;28;20130;-75
2023/01/02 03:39:32;;;;;;;5.18;0.60;;;;;;;-2.81;88.01;100403.63;10527438;28;20430;-75
2023/01/02 03:44:44;;;;;;;1.13;0.30;;;;;;;-2.85;88.35;100423.88;10529487;28;20063;-75
2023/01/02 03:49:51;;;;;;;1.00;0.63;;;;;;;-2.84;88.75;100429.03;10528739;28;20438;-75
2023/01/02 03:54:55;;;;;;;1.70;0.57;;;;;;;-2.79;89.22;100444.53;10499203;28;20053;-75
2023/01/02 04:00:07;;;;;;;1.00;0.68;;;;;;;-2.74;89.39;100452.84;10488172;28;20056;-75
2023/01/02 04:05:36;;;;;;;1.95;0.60;;;;;;;-2.77;89.13;100467.50;10485912;28;20041;-74
2023/01/02 04:10:41;;;;;;;0.85;0.40;;;;;;;-2.83;89.61;100470.97;10522322;28;20447;-74
2023/01/02 04:15:44;;;;;;;1.65;0.60;;;;;;;-2.85;90.13;100497.19;10522633;28;20040;-75
2023/01/02 04:20:49;;;;;;;0.38;0.32;;;;;;;-2.87;90.63;100496.56;10509900;28;20135;-75
2023/01/02 04:26:14;;;;;;;2.00;0.40;;;;;;;-2.87;90.62;100511.84;10526804;28;20060;-75
2023/01/02 04:31:21;;;;;;;2.05;0.85;;;;;;;-2.88;90.80;100519.06;10527895;28;20048;-75
2023/01/02 04:36:23;;;;;;;0.60;0.20;;;;;;;-2.81;91.23;100532.53;10527197;28;20052;-73
2023/01/02 04:41:26;;;;;;;0.47;0.30;;;;;;;-2.87;91.00;100539.53;10526581;28;20134;-75
2023/01/02 04:46:28;;;;;;;0.98;0.50;;;;;;;-2.86;91.14;100546.53;10527900;28;20052;-74
2023/01/02 04:51:30;;;;;;;1.98;0.45;;;;;;;-2.89;91.39;100554.16;10521397;28;20051;-74
2023/01/02 04:56:32;;;;;;;0.70;0.25;;;;;;;-2.91;91.12;100548.16;10485070;28;20068;-75
2023/01/02 05:01:35;;;;;;;2.45;0.30;;;;;;;-2.88;91.69;100562.03;10486326;28;20048;-75
2023/01/02 05:06:37;;;;;;;2.97;0.50;;;;;;;-2.90;91.49;100572.13;10485938;28;20045;-75
2023/01/02 05:11:39;;;;;;;2.15;0.63;;;;;;;-2.90;91.63;100576.69;10485766;28;20036;-75
2023/01/02 05:16:41;;;;;;;1.70;0.38;;;;;;;-2.92;91.84;100590.28;10486334;28;20053;-75
2023/01/02 05:27:04;;;;;;;1.58;0.65;;;;;;;-2.86;92.42;100605.63;10486028;28;20049;-74
2023/01/02 05:32:06;;;;;;;2.33;0.70;;;;;;;-2.84;92.38;100621.53;10500050;28;20503;-75
2023/01/02 05:37:09;;;;;;;1.95;0.40;;;;;;;-2.85;92.37;100628.75;10521646;28;20419;-76
2023/01/02 05:42:11;;;;;;;1.30;0.50;;;;;;;-2.88;92.14;100644.44;10509229;28;20055;-76
2023/01/02 05:47:13;;;;;;;4.55;0.68;;;;;;;-2.82;92.51;100636.41;10527406;28;20506;-76
2023/01/02 05:52:15;;;;;;;1.05;0.40;;;;;;;-2.74;92.53;100636.28;10511862;28;20049;-76
2023/01/02 05:57:17;;;;;;;0.38;0.38;;;;;;;-2.58;92.62;100642.41;10493603;28;20055;-74
2023/01/02 06:02:19;;;;;;;1.23;0.45;;;;;;;-2.54;92.28;100654.41;10491674;28;20049;-75
2023/01/02 06:07:22;;;;;;;2.03;0.60;;;;;;;-2.45;91.98;100655.91;10493455;28;20423;-75
2023/01/02 06:12:24;;;;;;;5.78;0.88;;;;;;;-2.49;92.33;100657.34;10504882;28;20041;-75
2023/01/02 06:17:26;;;;;;;3.05;0.68;;;;;;;-2.44;91.88;100660.25;10533183;28;20072;-74
2023/01/02 06:22:29;;;;;;;2.85;0.82;;;;;;;-2.40;91.97;100666.09;10491827;28;20075;-75
2023/01/02 06:27:31;;;;;;;1.10;0.45;;;;;;;-2.35;91.92;100694.03;10499774;28;20056;-75
2023/01/02 06:32:34;;;;;;;1.23;0.80;;;;;;;-2.43;92.31;100686.09;10531043;28;20045;-74
2023/01/02 06:37:41;;;;;;;2.88;0.45;;;;;;;-2.45;91.99;100691.66;10531548;28;20549;-76
2023/01/02 06:42:44;;;;;;;0.60;0.30;;;;;;;-2.47;92.42;100690.22;10532961;28;20048;-75
2023/01/02 06:47:46;;;;;;;0.38;0.38;;;;;;;-2.50;92.71;100702.19;10532749;28;20529;-75
2023/01/02 06:52:48;;;;;;;1.98;0.73;;;;;;;-2.56;92.83;100713.72;10503565;28;20045;-76
2023/01/02 06:57:50;;;;;;;1.27;0.47;;;;;;;-2.55;92.59;100720.75;10490532;28;20059;-76
2023/01/02 07:02:52;;;;;;;1.23;0.70;;;;;;;-2.63;92.67;100733.47;10489336;28;20230;-75
2023/01/02 07:07:54;;;;;;;2.75;0.82;;;;;;;-2.54;92.69;100743.06;10527203;28;20075;-75
2023/01/02 07:12:57;;;;;;;0.57;0.50;;;;;;;-2.50;93.27;100731.72;10490924;28;20037;-75
2023/01/02 07:17:59;;;;;;;1.23;0.47;;;;;;;-2.37;92.88;100736.41;10489853;28;20411;-75
2023/01/02 07:23:01;;;;;;;0.30;0.30;;;;;;;-2.32;92.77;100751.94;10489381;28;20052;-75
2023/01/02 07:28:03;;;;;;;1.45;0.55;;;;;;;-2.31;92.46;100757.09;10498937;28;20048;-75
2023/01/02 07:33:05;;;;;;;3.13;0.60;;;;;;;-2.38;92.55;100766.16;10530520;28;20048;-75
2023/01/02 07:38:08;;;;;;;1.35;0.68;;;;;;;-2.32;93.10;100774.25;10525385;28;20056;-76
2023/01/02 07:43:10;;;;;;;0.80;0.40;;;;;;;-2.31;92.89;100778.59;10530006;28;20040;-76
2023/01/02 07:48:12;;;;;;;2.70;0.65;;;;;;;-2.26;93.07;100772.63;10528393;28;20063;-75
2023/01/02 07:53:14;;;;;;;2.30;0.80;;;;;;;-2.23;92.79;100780.34;10529646;28;20048;-75
2023/01/02 07:58:16;;;;;;;3.42;1.10;;;;;;;-2.22;93.20;100784.69;10529687;28;20539;-74
2023/01/02 08:03:19;;;;;;;2.90;0.82;;;;;;;-2.17;93.85;100798.38;10524321;28;20076;-75
2023/01/02 08:08:21;;;;;;;2.28;0.60;;;;;;;-2.08;93.90;100799.03;10529091;28;20063;-75
2023/01/02 08:13:23;;;;;;;3.95;0.85;;;;;;;-2.00;94.02;100798.91;10528063;28;20053;-75
2023/01/02 08:18:25;;;;;;;1.98;0.80;;;;;;;-1.91;94.10;100803.09;10528772;28;20410;-76
2023/01/02 08:23:28;;;;;;;4.82;1.00;;;;;;;-1.82;94.19;100818.09;10529369;28;20071;-75
2023/01/02 08:28:30;;;;;;;1.95;0.75;;;;;;;-1.71;94.05;100828.31;10528537;28;20056;-76
2023/01/02 08:33:33;;;;;;;1.40;0.60;;;;;;;-1.64;93.95;100836.41;10493545;28;20051;-76
2023/01/02 08:38:35;;;;;;;1.83;0.68;;;;;;;-1.47;93.64;100837.78;10487163;28;20048;-75
2023/01/02 08:43:37;;;;;;;3.50;0.88;;;;;;;-1.49;93.42;100829.06;10486378;28;20526;-75
2023/01/02 08:48:39;;;;;;;0.95;0.63;;;;;;;-1.49;92.73;100847.09;10487307;28;20052;-76
2023/01/02 08:53:41;;;;;;;5.82;0.50;;;;;;;-1.58;92.60;100860.66;10485968;28;20057;-76
2023/01/02 08:58:54;;;;;;;3.55;0.77;;;;;;;-1.58;93.00;100879.50;10486540;28;20053;-76
2023/01/02 09:03:57;;;;;;;1.20;0.55;;;;;;;-1.61;92.47;100882.59;10485770;28;20052;-76
2023/01/02 09:09:00;;;;;;;0.82;0.60;;;;;;;-1.61;92.85;100900.59;10521847;28;20044;-75
2023/01/02 09:14:03;;;;;;;0.55;0.30;;;;;;;-1.66;92.35;100911.94;10527238;28;20056;-77
2023/01/02 09:19:06;;;;;;;1.92;1.13;;;;;;;-1.66;92.23;100917.34;10526952;28;20040;-75
2023/01/02 09:24:09;;;;;;;3.47;0.98;;;;;;;-1.66;92.05;100909.25;10527390;28;20037;-75
2023/01/02 09:29:13;;;;;;;5.75;1.13;;;;;;;-1.65;91.96;100916.31;10498844;28;20047;-75
2023/01/02 09:34:16;;;;;;;3.83;0.82;;;;;;;-1.62;91.73;100921.28;10494468;28;20033;-75
2023/01/02 09:39:18;;;;;;;2.72;1.02;;;;;;;-1.66;91.44;100922.72;10496833;28;20047;-75
2023/01/02 09:44:45;;;;;;;0.65;0.63;;;;;;;-1.66;91.18;100938.03;10535352;28;20059;-75
2023/01/02 09:49:53;;;;;;;5.70;1.15;;;;;;;-1.67;91.33;100939.88;10520475;28;20064;-75
2023/01/02 09:54:56;;;;;;;0.88;0.77;;;;;;;-1.60;91.03;100942.63;10493358;28;20059;-75
2023/01/02 10:00:08;;;;;;;4.20;0.88;;;;;;;-1.59;90.86;100942.44;10533413;28;20048;-75
2023/01/02 10:05:39;;;;;;;3.58;1.00;;;;;;;-1.57;90.94;100940.38;10524322;28;20048;-75
2023/01/02 10:10:45;;;;;;;3.08;1.25;;;;;;;-1.48;90.92;100948.31;10530444;28;20426;-75
2023/01/02 10:15:50;;;;;;;3.53;1.50;;;;;;;-1.48;90.65;100959.09;10534880;28;20047;-75
2023/01/02 10:20:59;;;;;;;2.65;0.90;;;;;;;-1.40;91.42;100951.69;10533256;28;20078;-76
2023/01/02 10:26:09;;;;;;;3.22;1.35;;;;;;;-1.39;91.56;100957.91;10527543;28;20037;-76
2023/01/02 10:31:37;;;;;;;2.70;0.90;;;;;;;-1.37;91.43;100961.25;10523036;28;20047;-76
2023/01/02 10:36:40;;;;;;;;;;;;;;;-1.39;91.86;100963.28;10532889;28;20051;-73
2023/01/02 10:41:49;;;;;;;4.38;1.10;;;;;;;-1.39;91.84;100969.53;10533738;28;19920;-77
2023/01/02 10:46:52;;;;;;;0.63;0.63;;;;;;;-1.37;91.91;100963.94;10521957;28;20060;-75
2023/01/02 10:52:02;;;;;;;6.85;0.80;;;;;;;-1.36;91.47;100968.31;10531397;28;20406;-75
2023/01/02 10:57:11;;;;;;;2.95;0.73;;;;;;;-1.35;91.91;100967.28;10532823;28;20052;-75
2023/01/02 11:02:43;;;;;;;1.50;0.80;;;;;;;-1.37;91.86;100985.47;10531934;28;20063;-75
2023/01/02 11:07:48;;;;;;;2.83;1.05;;;;;;;-1.32;92.20;101005.41;10479033;28;20049;-74
2023/01/02 11:12:50;;;;;;;5.10;0.95;;;;;;;-1.33;92.69;101010.97;10490667;28;20408;-75
2023/01/02 11:17:52;;;;;;;0.63;0.63;;;;;;;-1.31;92.93;101015.13;10490135;28;20075;-75
2023/01/02 11:22:57;;;;;;;4.10;1.23;;;;;;;-1.28;92.80;101017.44;10490731;28;20049;-75
2023/01/02 11:28:00;;;;;;;3.80;0.68;;;;;;;-1.26;93.24;101017.25;10531285;28;20044;-78
2023/01/02 11:33:05;;;;;;;4.15;0.90;;;;;;;-1.21;92.97;101025.59;10529230;28;20040;-74
2023/01/02 11:38:27;;;;;;;4.43;0.63;;;;;;;-1.28;93.34;101022.81;10519801;28;20064;-75
2023/01/02 11:43:48;;;;;;;4.00;0.63;;;;;;;-1.33;93.29;101013.66;10503893;28;20059;-75
2023/01/02 11:48:52;;;;;;;3.33;0.75;;;;;;;-1.40;93.52;101018.16;10489386;28;20044;-75
2023/01/02 11:53:57;;;;;;;4.35;1.33;;;;;;;-1.47;93.60;101017.25;10501933;28;20041;-75
2023/01/02 11:59:13;;;;;;;7.63;1.30;;;;;;;-1.47;94.02;101018.09;10514700;28;20032;-76
2023/01/02 12:04:15;;;;;;;7.15;1.85;;;;;;;-1.52;94.57;101018.69;10520066;28;20041;-76
2023/01/02 12:09:31;;;;;;;5.97;1.35;;;;;;;-1.56;94.51;101005.81;10517425;28;20039;-75
2023/01/02 12:14:41;;;;;;;3.33;1.20;;;;;;;-1.55;94.53;101023.63;10522583;28;20057;-74
2023/01/02 12:20:26;;;;;;;3.15;1.17;;;;;;;-1.56;94.83;101040.78;10516737;28;20048;-75
2023/01/02 12:25:55;;;;;;;2.53;0.65;;;;;;;-1.46;94.64;101035.06;10490137;28;20048;-74
2023/01/02 12:31:27;;;;;;;1.00;0.47;;;;;;;-1.41;94.87;101046.91;10512208;28;20048;-74
2023/01/02 12:36:37;;;;;;;7.32;1.70;;;;;;;-1.34;94.44;101038.91;10519031;28;20045;-74
2023/01/02 12:41:56;;;;;;;4.18;0.50;;;;;;;-1.33;95.12;101056.75;10519747;28;20049;-73
2023/01/02 12:47:11;;;;;;;1.85;0.63;;;;;;;-1.34;95.10;101079.31;10502507;28;20052;-74
2023/01/02 12:52:24;;;;;;;1.60;0.80;;;;;;;-1.37;95.49;101063.53;10506774;28;20051;-76
2023/01/02 12:57:29;;;;;;;1.55;0.73;;;;;;;-1.33;95.29;101064.81;10513663;28;20526;-73
2023/01/02 13:02:49;;;;;;;2.25;0.80;;;;;;;-1.39;95.68;101065.56;10508448;28;20050;-74
2023/01/02 13:08:13;;;;;;;4.63;1.25;;;;;;;-1.42;95.99;101060.56;10552175;28;20036;-74
2023/01/02 13:13:16;;;;;;;2.15;0.80;;;;;;;-1.40;96.10;101062.03;10510820;28;20510;-73
2023/01/02 13:18:36;;;;;;;7.63;1.23;;;;;;;-1.45;96.51;101077.94;10522661;28;20041;-72
2023/01/02 13:23:45;;;;;;;1.15;0.82;;;;;;;-1.39;96.41;101062.88;10555210;28;20052;-72
2023/01/02 13:29:07;;;;;;;1.55;0.70;;;;;;;-1.37;96.87;101071.63;10523699;28;20041;-72
2023/01/02 13:34:21;;;;;;;3.78;0.95;;;;;;;-1.33;96.83;101068.34;10534392;28;20059;-71
2023/01/02 13:39:29;;;;;;;4.82;1.20;;;;;;;-1.33;97.08;101075.59;10510356;28;20055;-72
2023/01/02 13:44:32;;;;;;;;;;;;;;;-1.25;97.38;101078.13;10521509;28;20072;-72
2023/01/02 13:49:34;;;;;;;2.05;0.98;;;;;;;-1.25;97.70;101078.13;10485124;28;19920;-72
2023/01/02 13:54:36;;;;;;;2.85;1.00;;;;;;;-1.27;97.61;101093.66;10485540;28;20060;-71
2023/01/02 14:00:03;;;;;;;3.08;0.82;;;;;;;-1.22;97.63;101093.88;10484730;28;20037;-72
2023/01/02 14:05:51;;;;;;;5.07;1.02;;;;;;;-1.12;97.62;101097.09;10502745;28;20044;-72
2023/01/02 14:11:04;;;;;;;1.48;0.85;;;;;;;-1.16;97.64;101092.31;10527229;28;20044;-71
2023/01/02 14:16:21;;;;;;;1.33;0.80;;;;;;;-1.11;97.71;101090.69;10533358;28;20507;-73
2023/01/02 14:21:50;;;;;;;1.40;0.90;;;;;;;-0.91;98.00;101102.47;10533077;28;20463;-72
2023/01/02 14:26:59;;;;;;;5.40;1.38;;;;;;;-0.85;98.09;101108.13;10492030;28;20049;-71
2023/01/02 14:32:08;;;;;;;3.90;1.13;;;;;;;-0.91;97.67;101104.31;10491888;28;20090;-72
2023/01/02 14:37:10;;;;;;;;;;;;;;;-0.88;97.51;101116.56;10489852;28;20049;-71
2023/01/02 14:47:46;;;;;;;4.50;1.33;;;;;;;-1.00;97.91;101114.41;10532920;28;20056;-72
2023/01/02 14:53:18;;;;;;;3.50;1.00;;;;;;;-0.86;97.37;101114.53;10530751;28;20052;-72
2023/01/02 14:58:45;;;;;;;4.32;1.58;;;;;;;-0.86;97.49;101106.47;10514804;28;20507;-71
2023/01/02 15:04:01;;;;;;;4.68;1.35;;;;;;;-0.86;98.11;101091.13;10515315;28;20044;-71
2023/01/02 15:09:12;;;;;;;4.32;0.85;;;;;;;-0.91;97.71;101096.25;10529818;28;20529;-72
2023/01/02 15:14:17;;;;;;;2.58;1.10;;;;;;;-0.81;97.35;101072.50;10529979;28;20052;-71
2023/01/02 15:19:28;;;;;;;1.95;1.20;;;;;;;-0.72;96.84;101068.63;10517441;28;20068;-72
2023/01/02 15:24:30;;;;;;;1.90;1.13;;;;;;;-0.79;96.61;101081.22;10487869;28;20060;-72
2023/01/02 15:29:33;;;;;;;3.85;1.38;;;;;;;-0.55;96.60;101073.69;10488991;28;20048;-72
2023/01/02 15:34:36;;;;;;;2.33;1.30;;;;;;;-0.44;95.95;101076.69;10489605;28;20045;-72
2023/01/02 15:39:40;;;;;;;1.98;1.00;;;;;;;-0.55;95.29;101074.53;10493825;28;20037;-71
2023/01/02 15:50:20;;;;;;;2.15;0.80;;;;;;;-0.72;95.18;101065.09;10487266;28;20360;-72
2023/01/02 15:55:23;;;;;;;3.95;1.10;;;;;;;-0.69;94.68;101062.03;10489500;28;20369;-73
2023/01/02 16:00:30;;;;;;;4.47;1.40;;;;;;;-0.47;94.71;101052.81;10522501;28;20051;-72
2023/01/02 16:05:47;;;;;;;3.30;1.40;;;;;;;-0.48;94.19;101064.66;10504303;28;20052;-73
2023/01/02 16:10:59;;;;;;;5.30;1.20;;;;;;;-0.39;94.35;101060.75;10488219;28;20049;-72
2023/01/02 16:16:04;;;;;;;4.93;1.92;;;;;;;-0.38;93.98;101067.78;10486566;28;20510;-72
2023/01/02 16:21:08;;;;;;;3.20;1.15;;;;;;;-0.36;93.76;101063.03;10514829;28;20040;-72
2023/01/02 16:26:12;;;;;;;6.38;1.90;;;;;;;-0.15;93.78;101050.50;10527160;28;20040;-72
2023/01/02 16:31:17;;;;;;;3.22;1.33;;;;;;;0.09;93.28;101049.13;10526678;28;20051;-73
2023/01/02 16:36:23;;;;;;;6.95;2.15;;;;;;;-0.18;92.96;101038.22;10525537;28;20561;-73
2023/01/02 16:41:33;;;;;;;7.32;2.20;;;;;;;-0.26;92.69;101033.00;10494710;28;20075;-73
2023/01/02 16:46:36;;;;;;;5.53;1.90;;;;;;;-0.12;92.85;101032.03;10513176;28;20057;-73
2023/01/02 16:51:41;;;;;;;6.03;1.70;;;;;;;-0.26;92.25;101037.56;10528328;28;20040;-73
2023/01/02 16:56:48;;;;;;;5.70;1.60;;;;;;;-0.36;92.56;101030.69;10523348;28;20041;-73
2023/01/02 17:01:52;;;;;;;4.28;1.55;;;;;;;-0.14;92.48;101023.31;10487256;28;20047;-72
2023/01/02 17:06:55;;;;;;;5.40;2.05;;;;;;;0.22;91.66;101028.44;10520178;28;20530;-74
2023/01/02 17:12:00;;;;;;;4.95;2.00;;;;;;;-0.01;91.33;101019.81;10528669;28;20045;-73
2023/01/02 17:17:02;;;;;;;7.03;1.85;;;;;;;-0.06;91.38;101016.91;10512196;28;20049;-71
2023/01/02 17:22:09;;;;;;;5.85;1.90;;;;;;;-0.07;90.79;101016.06;10509483;28;20174;-77
2023/01/02 17:27:11;;;;;;;4.88;1.75;;;;;;;0.03;91.39;101021.09;10503134;28;20040;-74
2023/01/02 17:32:17;;;;;;;4.88;1.67;;;;;;;0.11;90.91;101012.81;10507911;28;20036;-73
2023/01/02 17:37:24;;;;;;;8.05;2.20;;;;;;;0.20;90.74;100999.97;10516175;28;20064;-76
2023/01/02 17:42:26;;;;;;;4.90;1.75;;;;;;;0.18;90.34;100999.34;10506114;28;20044;-75
2023/01/02 17:47:33;;;;;;;6.28;2.10;;;;;;;0.13;89.98;100999.94;10513155;28;20037;-73
2023/01/02 17:52:37;;;;;;;6.50;1.75;;;;;;;0.09;90.40;100993.31;10488507;28;20132;-75
2023/01/02 17:57:39;;;;;;;4.78;2.05;;;;;;;0.18;89.78;100991.25;10532633;28;20063;-75
2023/01/02 18:02:42;;;;;;;3.67;2.03;;;;;;;0.36;89.96;100998.78;10531457;28;20499;-79
2023/01/02 18:07:45;;;;;;;7.30;2.75;;;;;;;0.49;89.76;100985.25;10528392;28;20036;-75
2023/01/02 18:12:48;;;;;;;7.93;2.35;;;;;;;0.32;88.31;100989.41;10525585;28;20044;-74
2023/01/02 18:17:51;;;;;;;5.20;2.95;;;;;;;0.35;88.43;100988.97;10545171;28;20403;-78
2023/01/02 18:22:54;;;;;;;5.15;2.72;;;;;;;0.35;88.82;100992.53;10521767;28;20056;-81
2023/01/02 18:28:05;;;;;;;4.47;2.78;;;;;;;0.50;87.52;100987.75;10517660;28;20048;-73
2023/01/02 18:33:16;;;;;;;6.38;3.58;;;;;;;0.36;87.50;100983.41;10491083;28;20037;-72
2023/01/02 18:38:34;;;;;;;5.65;2.90;;;;;;;0.34;87.54;100987.31;10521653;28;20048;-74
2023/01/02 18:43:38;;;;;;;7.82;3.95;;;;;;;-0.14;87.30;100985.56;10532514;28;20048;-74
2023/01/02 18:48:44;;;;;;;7.07;3.92;;;;;;;0.02;88.44;100981.69;10531700;28;20131;-74
2023/01/02 18:53:51;;;;;;;6.30;3.83;;;;;;;-0.10;88.16;100981.44;10530078;28;20045;-74
2023/01/02 18:59:20;;;;;;;7.25;3.63;;;;;;;-0.20;88.53;100970.19;10527793;28;20044;-75
2023/01/02 19:04:25;;;;;;;5.90;3.60;;;;;;;-0.29;88.30;100970.56;10526408;28;20048;-76
2023/01/02 19:09:34;;;;;;;8.23;3.60;;;;;;;-0.33;89.01;100962.91;10542043;28;20063;-74
2023/01/02 19:14:42;;;;;;;6.05;3.25;;;;;;;-0.32;88.86;100966.41;10527905;28;20044;-74
2023/01/02 19:19:44;;;;;;;6.35;3.65;;;;;;;-0.32;89.18;100953.78;10527141;28;20048;-75
2023/01/02 19:24:47;;;;;;;8.82;3.55;;;;;;;-0.51;89.23;100946.44;10509772;28;20060;-74
2023/01/02 19:29:49;;;;;;;7.10;4.00;;;;;;;-0.66;89.80;100934.97;10519403;28;20040;-82
2023/01/02 19:35:14;;;;;;;8.60;3.80;;;;;;;-0.28;90.00;100927.22;10511182;28;20033;-75
2023/01/02 19:40:19;;;;;;;7.88;4.70;;;;;;;-0.13;89.03;100924.38;10520792;28;20503;-80
2023/01/02 19:45:24;;;;;;;7.82;4.22;;;;;;;-0.65;88.45;100913.22;10533704;28;20086;-80
2023/01/02 19:50:27;;;;;;;8.02;4.43;;;;;;;-0.82;89.21;100921.84;10528263;28;20051;-80
2023/01/02 19:55:29;;;;;;;6.80;5.22;;;;;;;-0.68;90.22;100912.78;10510853;28;20537;-78
2023/01/02 20:00:32;;;;;;;10.60;6.25;;;;;;;-0.63;90.29;100904.91;10530488;28;20041;-78
2023/01/02 20:05:35;;;;;;;11.20;5.90;;;;;;;-0.78;89.92;100896.97;10510038;28;20051;-78
2023/01/02 20:10:37;;;;;;;11.32;5.63;;;;;;;-0.55;89.73;100893.94;10520901;28;20048;-77
2023/01/02 20:15:40;;;;;;;9.95;5.43;;;;;;;-0.63;89.70;100886.88;10509642;28;20059;-81
2023/01/02 20:20:42;;;;;;;8.55;5.68;;;;;;;-0.46;89.28;100883.81;10505284;28;20437;-77
2023/01/02 20:25:45;;;;;;;12.57;6.18;;;;;;;-0.30;88.46;100878.06;10526970;28;20052;-75
2023/01/02 20:30:50;;;;;;;11.35;6.25;;;;;;;-0.36;88.09;100879.69;10507450;28;20040;-75
2023/01/02 20:35:52;;;;;;;13.88;7.05;;;;;;;-0.52;88.42;100882.78;10508115;28;20049;-75
2023/01/02 20:40:55;;;;;;;11.38;7.10;;;;;;;-0.55;88.65;100885.03;10505071;28;20052;-75
2023/01/02 20:45:57;;;;;;;10.75;7.07;;;;;;;-0.70;88.67;100869.00;10527341;28;20056;-76
2023/01/02 20:50:59;;;;;;;14.05;7.18;;;;;;;-0.89;89.56;100856.28;10522527;28;20044;-75
2023/01/02 20:56:02;;;;;;;17.05;8.70;;;;;;;-0.94;89.67;100836.19;10505817;28;20041;-77
2023/01/02 21:01:04;;;;;;;14.23;8.23;;;;;;;-0.99;90.29;100822.50;10526658;28;20052;-76
2023/01/02 21:06:06;;;;;;;13.85;7.95;;;;;;;-1.04;90.28;100816.03;10528496;28;20043;-77
2023/01/02 21:11:09;;;;;;;15.20;8.20;;;;;;;-1.18;90.43;100811.66;10523457;28;20056;-75
2023/01/02 21:16:11;;;;;;;16.60;8.32;;;;;;;-1.23;90.56;100814.91;10513856;28;20139;-75
2023/01/02 21:21:17;;;;;;;14.57;7.15;;;;;;;-1.43;91.11;100814.00;10494960;28;20052;-76
2023/01/02 21:26:22;;;;;;;12.35;7.00;;;;;;;-1.58;91.68;100801.47;10533361;28;20075;-76
2023/01/02 21:31:26;;;;;;;16.15;8.27;;;;;;;-1.63;91.37;100795.88;10503592;28;20048;-75
2023/01/02 21:36:28;;;;;;;13.90;8.18;;;;;;;-1.74;92.04;100787.50;10531986;28;20040;-75
2023/01/02 21:46:52;;;;;;;18.05;10.02;;;;;;;-1.85;92.87;100756.63;10557347;28;20032;-75
2023/01/02 21:51:54;;;;;;;16.48;9.38;;;;;;;-1.98;93.28;100754.66;10574561;28;20055;-74
2023/01/02 21:56:56;;;;;;;20.60;10.30;;;;;;;-1.86;93.90;100754.97;10576089;28;20036;-74
2023/01/02 22:02:01;;;;;;;24.13;9.68;;;;;;;-2.04;94.29;100733.97;10530042;28;20443;-75
2023/01/02 22:07:03;;;;;;;23.67;10.80;;;;;;;-1.94;94.94;100718.28;10527205;28;20415;-75
2023/01/02 22:12:08;;;;;;;20.15;9.07;;;;;;;-1.91;95.24;100707.16;10553581;28;20043;-76
2023/01/02 22:17:10;;;;;;;22.95;10.02;;;;;;;-1.92;95.16;100710.03;10538653;28;20040;-76
2023/01/02 22:22:12;;;;;;;28.65;13.55;;;;;;;-1.96;95.27;100708.75;10518825;28;20048;-74
2023/01/02 22:27:40;;;;;;;23.20;10.70;;;;;;;-2.12;95.26;100699.97;10527275;28;20052;-75
2023/01/02 22:32:42;;;;;;;25.58;12.50;;;;;;;-2.28;95.29;100692.22;10532426;28;20044;-76
2023/01/02 22:37:45;;;;;;;20.05;10.13;;;;;;;-2.49;95.38;100681.53;10504390;28;20040;-75
2023/01/02 22:42:53;;;;;;;22.85;11.10;;;;;;;-2.52;95.48;100674.69;10507999;28;20052;-76
2023/01/02 22:47:58;;;;;;;26.30;10.98;;;;;;;-2.44;95.89;100662.94;10531377;28;20415;-75
2023/01/02 22:53:01;;;;;;;22.85;10.25;;;;;;;-2.46;96.39;100644.34;10530792;28;20583;-76
2023/01/02 22:58:05;;;;;;;23.92;10.43;;;;;;;-2.48;96.43;100629.44;10531066;28;20404;-75
2023/01/02 23:03:11;;;;;;;23.42;10.68;;;;;;;-2.57;96.08;100617.19;10506760;28;20041;-75
2023/01/02 23:08:14;;;;;;;23.27;9.70;;;;;;;-2.49;96.09;100622.41;10493148;28;20040;-75
2023/01/02 23:13:16;;;;;;;20.20;9.55;;;;;;;-2.62;96.04;100603.50;10505062;28;20521;-75
2023/01/02 23:23:40;;;;;;;25.17;10.07;;;;;;;-2.72;95.88;100600.34;10522262;28;20499;-75
2023/01/02 23:28:42;;;;;;;21.90;10.25;;;;;;;-2.84;95.90;100594.69;10490608;28;20052;-76
2023/01/02 23:33:44;;;;;;;27.88;12.45;;;;;;;-2.84;95.57;100592.81;10509502;28;20064;-75
2023/01/02 23:38:46;;;;;;;25.63;12.80;;;;;;;-2.83;95.88;100601.72;10488290;28;20059;-75
2023/01/02 23:43:50;;;;;;;26.73;12.18;;;;;;;-2.94;95.61;100591.53;10507847;28;20048;-74
2023/01/02 23:48:52;;;;;;;23.08;11.00;;;;;;;-3.10;95.99;100580.03;10511438;28;20032;-77
2023/01/02 23:53:56;;;;;;;17.73;8.23;;;;;;;-3.20;96.15;100552.69;10520535;28;20525;-77
2023/01/02 23:59:00;;;;;;;27.73;12.80;;;;;;;-3.28;96.31;100531.38;10508058;28;20503;-77
